sensor_id;sensor_type;location;lat;lon;timestamp;P1;durP1;ratioP1;P2;durP2;ratioP2
16800;SDS011;8518;53.236;10.384;2022-11-15T00:00:07;35.10;;;23.73;;
16800;SDS011;8518;53.236;10.384;2022-11-15T00:02:33;32.07;;;23.20;;
16800;SDS011;8518;53.236;10.384;2022-11-15T00:04:59;28.50;;;21.87;;
16800;SDS011;8518;53.236;10.384;2022-11-15T00:07:24;30.87;;;22.37;;
16800;SDS011;8518;53.236;10.384;2022-11-15T00:09:50;31.30;;;23.23;;
16800;SDS011;8518;53.236;10.384;2022-11-15T00:12:16;29.17;;;22.10;;
16800;SDS011;8518;53.236;10.384;2022-11-15T00:14:41;30.07;;;22.23;;
16800;SDS011;8518;53.236;10.384;2022-11-15T00:17:07;31.30;;;22.57;;
16800;SDS011;8518;53.236;10.384;2022-11-15T00:19:32;30.27;;;22.33;;
16800;SDS011;8518;53.236;10.384;2022-11-15T00:21:58;27.93;;;21.87;;
16800;SDS011;8518;53.236;10.384;2022-11-15T00:24:24;30.20;;;22.43;;
16800;SDS011;8518;53.236;10.384;2022-11-15T00:26:49;28.53;;;21.77;;
16800;SDS011;8518;53.236;10.384;2022-11-15T00:29:15;28.10;;;21.67;;
16800;SDS011;8518;53.236;10.384;2022-11-15T00:31:40;27.33;;;21.10;;
16800;SDS011;8518;53.236;10.384;2022-11-15T00:34:06;27.70;;;21.67;;
16800;SDS011;8518;53.236;10.384;2022-11-15T00:36:32;27.87;;;21.87;;
16800;SDS011;8518;53.236;10.384;2022-11-15T00:38:59;25.30;;;20.43;;
16800;SDS011;8518;53.236;10.384;2022-11-15T00:41:25;26.37;;;20.23;;
16800;SDS011;8518;53.236;10.384;2022-11-15T00:43:51;28.97;;;20.90;;
16800;SDS011;8518;53.236;10.384;2022-11-15T00:46:16;26.20;;;19.87;;
16800;SDS011;8518;53.236;10.384;2022-11-15T00:48:42;27.70;;;21.10;;
16800;SDS011;8518;53.236;10.384;2022-11-15T00:51:07;27.00;;;20.10;;
16800;SDS011;8518;53.236;10.384;2022-11-15T00:53:33;26.57;;;19.93;;
16800;SDS011;8518;53.236;10.384;2022-11-15T00:55:59;27.93;;;20.27;;
16800;SDS011;8518;53.236;10.384;2022-11-15T00:58:25;27.33;;;20.80;;
16800;SDS011;8518;53.236;10.384;2022-11-15T01:00:50;30.53;;;21.03;;
16800;SDS011;8518;53.236;10.384;2022-11-15T01:03:16;26.77;;;20.60;;
16800;SDS011;8518;53.236;10.384;2022-11-15T01:05:42;27.67;;;20.40;;
16800;SDS011;8518;53.236;10.384;2022-11-15T01:08:16;27.53;;;20.97;;
16800;SDS011;8518;53.236;10.384;2022-11-15T01:10:42;25.20;;;20.63;;
16800;SDS011;8518;53.236;10.384;2022-11-15T01:13:08;28.87;;;22.33;;
16800;SDS011;8518;53.236;10.384;2022-11-15T01:15:33;29.53;;;22.10;;
16800;SDS011;8518;53.236;10.384;2022-11-15T01:17:59;28.43;;;22.13;;
16800;SDS011;8518;53.236;10.384;2022-11-15T01:20:25;30.60;;;21.90;;
16800;SDS011;8518;53.236;10.384;2022-11-15T01:22:50;30.17;;;21.83;;
16800;SDS011;8518;53.236;10.384;2022-11-15T01:25:16;31.47;;;21.63;;
16800;SDS011;8518;53.236;10.384;2022-11-15T01:27:42;29.17;;;21.03;;
16800;SDS011;8518;53.236;10.384;2022-11-15T01:30:07;26.47;;;20.53;;
16800;SDS011;8518;53.236;10.384;2022-11-15T01:32:33;28.27;;;20.30;;
16800;SDS011;8518;53.236;10.384;2022-11-15T01:34:59;28.20;;;20.70;;
16800;SDS011;8518;53.236;10.384;2022-11-15T01:37:25;26.53;;;19.80;;
16800;SDS011;8518;53.236;10.384;2022-11-15T01:39:50;25.83;;;19.83;;
16800;SDS011;8518;53.236;10.384;2022-11-15T01:42:16;25.43;;;19.73;;
16800;SDS011;8518;53.236;10.384;2022-11-15T01:44:45;27.40;;;19.70;;
16800;SDS011;8518;53.236;10.384;2022-11-15T01:47:15;26.90;;;19.57;;
16800;SDS011;8518;53.236;10.384;2022-11-15T01:50:07;24.30;;;19.20;;
16800;SDS011;8518;53.236;10.384;2022-11-15T01:52:35;24.40;;;19.17;;
16800;SDS011;8518;53.236;10.384;2022-11-15T01:55:07;27.07;;;19.20;;
16800;SDS011;8518;53.236;10.384;2022-11-15T01:57:33;25.87;;;19.40;;
16800;SDS011;8518;53.236;10.384;2022-11-15T02:00:00;23.53;;;18.40;;
16800;SDS011;8518;53.236;10.384;2022-11-15T02:02:28;24.30;;;18.43;;
16800;SDS011;8518;53.236;10.384;2022-11-15T02:04:53;25.83;;;18.43;;
16800;SDS011;8518;53.236;10.384;2022-11-15T02:07:19;22.93;;;18.33;;
16800;SDS011;8518;53.236;10.384;2022-11-15T02:09:47;25.23;;;19.13;;
16800;SDS011;8518;53.236;10.384;2022-11-15T02:12:18;26.23;;;19.13;;
16800;SDS011;8518;53.236;10.384;2022-11-15T02:14:46;22.23;;;17.73;;
16800;SDS011;8518;53.236;10.384;2022-11-15T02:17:38;23.43;;;17.87;;
16800;SDS011;8518;53.236;10.384;2022-11-15T02:25:28;23.93;;;18.67;;
16800;SDS011;8518;53.236;10.384;2022-11-15T02:30:51;24.27;;;18.57;;
16800;SDS011;8518;53.236;10.384;2022-11-15T02:33:31;24.80;;;18.53;;
16800;SDS011;8518;53.236;10.384;2022-11-15T02:36:11;24.60;;;18.53;;
16800;SDS011;8518;53.236;10.384;2022-11-15T02:38:59;26.10;;;18.87;;
16800;SDS011;8518;53.236;10.384;2022-11-15T02:44:06;26.07;;;20.00;;
16800;SDS011;8518;53.236;10.384;2022-11-15T02:46:40;27.17;;;20.37;;
16800;SDS011;8518;53.236;10.384;2022-11-15T02:49:28;24.90;;;18.70;;
16800;SDS011;8518;53.236;10.384;2022-11-15T02:51:56;26.60;;;19.23;;
16800;SDS011;8518;53.236;10.384;2022-11-15T02:54:23;30.40;;;19.10;;
16800;SDS011;8518;53.236;10.384;2022-11-15T02:56:51;24.73;;;19.03;;
16800;SDS011;8518;53.236;10.384;2022-11-15T03:04:53;27.70;;;18.47;;
16800;SDS011;8518;53.236;10.384;2022-11-15T03:07:29;24.83;;;19.00;;
16800;SDS011;8518;53.236;10.384;2022-11-15T03:12:56;25.57;;;19.03;;
16800;SDS011;8518;53.236;10.384;2022-11-15T03:15:28;26.27;;;18.07;;
16800;SDS011;8518;53.236;10.384;2022-11-15T03:20:29;21.80;;;17.47;;
16800;SDS011;8518;53.236;10.384;2022-11-15T03:22:57;24.10;;;17.87;;
16800;SDS011;8518;53.236;10.384;2022-11-15T03:25:28;24.53;;;17.80;;
16800;SDS011;8518;53.236;10.384;2022-11-15T03:27:57;25.60;;;18.90;;
16800;SDS011;8518;53.236;10.384;2022-11-15T03:30:27;23.87;;;18.10;;
16800;SDS011;8518;53.236;10.384;2022-11-15T03:32:55;23.17;;;17.53;;
16800;SDS011;8518;53.236;10.384;2022-11-15T03:35:27;23.30;;;17.83;;
16800;SDS011;8518;53.236;10.384;2022-11-15T03:38:19;23.83;;;16.97;;
16800;SDS011;8518;53.236;10.384;2022-11-15T03:41:00;24.07;;;17.37;;
16800;SDS011;8518;53.236;10.384;2022-11-15T03:46:28;22.63;;;16.67;;
16800;SDS011;8518;53.236;10.384;2022-11-15T03:49:01;23.20;;;16.73;;
16800;SDS011;8518;53.236;10.384;2022-11-15T03:51:58;20.30;;;15.87;;
16800;SDS011;8518;53.236;10.384;2022-11-15T03:54:24;20.80;;;16.23;;
16800;SDS011;8518;53.236;10.384;2022-11-15T03:56:50;21.80;;;16.20;;
16800;SDS011;8518;53.236;10.384;2022-11-15T03:59:15;21.63;;;16.13;;
16800;SDS011;8518;53.236;10.384;2022-11-15T04:01:41;20.20;;;15.83;;
16800;SDS011;8518;53.236;10.384;2022-11-15T04:04:06;21.37;;;16.20;;
16800;SDS011;8518;53.236;10.384;2022-11-15T04:06:32;20.73;;;16.23;;
16800;SDS011;8518;53.236;10.384;2022-11-15T04:08:58;18.90;;;15.53;;
16800;SDS011;8518;53.236;10.384;2022-11-15T04:11:23;18.83;;;15.37;;
16800;SDS011;8518;53.236;10.384;2022-11-15T04:13:49;20.10;;;15.47;;
16800;SDS011;8518;53.236;10.384;2022-11-15T04:16:14;23.77;;;16.10;;
16800;SDS011;8518;53.236;10.384;2022-11-15T04:18:40;19.17;;;15.20;;
16800;SDS011;8518;53.236;10.384;2022-11-15T04:21:07;21.73;;;16.33;;
16800;SDS011;8518;53.236;10.384;2022-11-15T04:23:51;20.53;;;15.87;;
16800;SDS011;8518;53.236;10.384;2022-11-15T04:26:21;22.83;;;16.87;;
16800;SDS011;8518;53.236;10.384;2022-11-15T04:28:48;20.73;;;15.27;;
16800;SDS011;8518;53.236;10.384;2022-11-15T04:31:32;21.40;;;16.00;;
16800;SDS011;8518;53.236;10.384;2022-11-15T04:33:58;21.73;;;15.63;;
16800;SDS011;8518;53.236;10.384;2022-11-15T04:36:24;21.67;;;15.63;;
16800;SDS011;8518;53.236;10.384;2022-11-15T04:39:08;22.47;;;15.77;;
16800;SDS011;8518;53.236;10.384;2022-11-15T04:41:34;21.53;;;15.90;;
16800;SDS011;8518;53.236;10.384;2022-11-15T04:44:00;22.63;;;15.93;;
16800;SDS011;8518;53.236;10.384;2022-11-15T04:46:26;21.17;;;16.47;;
16800;SDS011;8518;53.236;10.384;2022-11-15T04:48:52;20.10;;;15.73;;
16800;SDS011;8518;53.236;10.384;2022-11-15T04:51:18;19.00;;;15.27;;
16800;SDS011;8518;53.236;10.384;2022-11-15T04:53:44;22.77;;;16.90;;
16800;SDS011;8518;53.236;10.384;2022-11-15T04:56:10;21.00;;;15.17;;
16800;SDS011;8518;53.236;10.384;2022-11-15T04:58:36;21.37;;;16.13;;
16800;SDS011;8518;53.236;10.384;2022-11-15T05:01:12;22.13;;;15.83;;
16800;SDS011;8518;53.236;10.384;2022-11-15T05:03:40;22.47;;;16.23;;
16800;SDS011;8518;53.236;10.384;2022-11-15T05:06:25;18.57;;;14.13;;
16800;SDS011;8518;53.236;10.384;2022-11-15T05:08:51;22.93;;;15.63;;
16800;SDS011;8518;53.236;10.384;2022-11-15T05:11:17;21.10;;;15.30;;
16800;SDS011;8518;53.236;10.384;2022-11-15T05:13:42;22.47;;;16.53;;
16800;SDS011;8518;53.236;10.384;2022-11-15T05:16:08;19.17;;;14.60;;
16800;SDS011;8518;53.236;10.384;2022-11-15T05:18:34;20.30;;;15.07;;
16800;SDS011;8518;53.236;10.384;2022-11-15T05:21:04;21.70;;;15.63;;
16800;SDS011;8518;53.236;10.384;2022-11-15T05:23:30;18.53;;;15.33;;
16800;SDS011;8518;53.236;10.384;2022-11-15T05:25:59;20.47;;;16.20;;
16800;SDS011;8518;53.236;10.384;2022-11-15T05:28:25;23.97;;;16.20;;
16800;SDS011;8518;53.236;10.384;2022-11-15T05:30:51;20.00;;;15.17;;
16800;SDS011;8518;53.236;10.384;2022-11-15T05:33:17;20.97;;;15.67;;
16800;SDS011;8518;53.236;10.384;2022-11-15T05:35:45;21.87;;;15.83;;
16800;SDS011;8518;53.236;10.384;2022-11-15T05:38:15;19.80;;;16.20;;
16800;SDS011;8518;53.236;10.384;2022-11-15T05:40:41;19.47;;;14.93;;
16800;SDS011;8518;53.236;10.384;2022-11-15T05:43:06;20.03;;;14.67;;
16800;SDS011;8518;53.236;10.384;2022-11-15T05:45:32;20.37;;;15.87;;
16800;SDS011;8518;53.236;10.384;2022-11-15T05:47:59;22.60;;;15.57;;
16800;SDS011;8518;53.236;10.384;2022-11-15T05:50:29;21.00;;;16.17;;
16800;SDS011;8518;53.236;10.384;2022-11-15T05:52:55;21.67;;;15.90;;
16800;SDS011;8518;53.236;10.384;2022-11-15T05:55:21;18.67;;;14.70;;
16800;SDS011;8518;53.236;10.384;2022-11-15T05:57:47;23.60;;;14.70;;
16800;SDS011;8518;53.236;10.384;2022-11-15T06:00:13;20.97;;;15.20;;
16800;SDS011;8518;53.236;10.384;2022-11-15T06:02:39;21.03;;;15.57;;
16800;SDS011;8518;53.236;10.384;2022-11-15T06:05:05;21.03;;;14.73;;
16800;SDS011;8518;53.236;10.384;2022-11-15T06:07:31;23.30;;;15.63;;
16800;SDS011;8518;53.236;10.384;2022-11-15T06:09:56;20.33;;;15.90;;
16800;SDS011;8518;53.236;10.384;2022-11-15T06:12:22;22.70;;;16.27;;
16800;SDS011;8518;53.236;10.384;2022-11-15T06:14:47;21.40;;;14.57;;
16800;SDS011;8518;53.236;10.384;2022-11-15T06:17:13;19.47;;;15.27;;
16800;SDS011;8518;53.236;10.384;2022-11-15T06:19:39;21.70;;;15.80;;
16800;SDS011;8518;53.236;10.384;2022-11-15T06:22:04;20.80;;;14.80;;
16800;SDS011;8518;53.236;10.384;2022-11-15T06:24:30;23.03;;;15.30;;
16800;SDS011;8518;53.236;10.384;2022-11-15T06:26:56;20.13;;;14.90;;
16800;SDS011;8518;53.236;10.384;2022-11-15T06:29:22;17.70;;;14.43;;
16800;SDS011;8518;53.236;10.384;2022-11-15T06:31:48;18.67;;;14.23;;
16800;SDS011;8518;53.236;10.384;2022-11-15T06:34:13;19.43;;;15.23;;
16800;SDS011;8518;53.236;10.384;2022-11-15T06:36:39;20.40;;;15.23;;
16800;SDS011;8518;53.236;10.384;2022-11-15T06:39:05;19.33;;;15.60;;
16800;SDS011;8518;53.236;10.384;2022-11-15T06:41:33;21.97;;;15.13;;
16800;SDS011;8518;53.236;10.384;2022-11-15T06:43:59;20.47;;;15.97;;
16800;SDS011;8518;53.236;10.384;2022-11-15T06:46:25;21.30;;;15.17;;
16800;SDS011;8518;53.236;10.384;2022-11-15T06:48:51;19.47;;;14.83;;
16800;SDS011;8518;53.236;10.384;2022-11-15T06:51:17;18.07;;;14.03;;
16800;SDS011;8518;53.236;10.384;2022-11-15T06:53:43;19.77;;;14.27;;
16800;SDS011;8518;53.236;10.384;2022-11-15T06:56:08;20.20;;;15.53;;
16800;SDS011;8518;53.236;10.384;2022-11-15T06:58:35;20.80;;;14.97;;
16800;SDS011;8518;53.236;10.384;2022-11-15T07:01:05;20.80;;;15.10;;
16800;SDS011;8518;53.236;10.384;2022-11-15T07:03:39;18.23;;;14.60;;
16800;SDS011;8518;53.236;10.384;2022-11-15T07:06:06;19.30;;;14.30;;
16800;SDS011;8518;53.236;10.384;2022-11-15T07:08:33;18.40;;;14.00;;
16800;SDS011;8518;53.236;10.384;2022-11-15T07:11:00;18.83;;;14.07;;
16800;SDS011;8518;53.236;10.384;2022-11-15T07:13:27;18.23;;;14.03;;
16800;SDS011;8518;53.236;10.384;2022-11-15T07:15:54;20.00;;;14.57;;
16800;SDS011;8518;53.236;10.384;2022-11-15T07:18:20;21.40;;;14.63;;
16800;SDS011;8518;53.236;10.384;2022-11-15T07:20:46;15.63;;;13.47;;
16800;SDS011;8518;53.236;10.384;2022-11-15T07:23:12;16.50;;;14.00;;
16800;SDS011;8518;53.236;10.384;2022-11-15T07:25:37;18.13;;;13.77;;
16800;SDS011;8518;53.236;10.384;2022-11-15T07:28:03;16.60;;;13.23;;
16800;SDS011;8518;53.236;10.384;2022-11-15T07:30:29;13.80;;;11.40;;
16800;SDS011;8518;53.236;10.384;2022-11-15T07:32:58;12.93;;;11.57;;
16800;SDS011;8518;53.236;10.384;2022-11-15T07:35:25;15.07;;;10.77;;
16800;SDS011;8518;53.236;10.384;2022-11-15T07:40:27;12.77;;;10.87;;
16800;SDS011;8518;53.236;10.384;2022-11-15T07:43:01;11.67;;;9.90;;
16800;SDS011;8518;53.236;10.384;2022-11-15T07:45:28;14.63;;;10.80;;
16800;SDS011;8518;53.236;10.384;2022-11-15T07:47:54;12.03;;;10.23;;
16800;SDS011;8518;53.236;10.384;2022-11-15T07:50:21;13.83;;;11.20;;
16800;SDS011;8518;53.236;10.384;2022-11-15T07:52:52;13.33;;;10.40;;
16800;SDS011;8518;53.236;10.384;2022-11-15T07:55:23;12.07;;;10.17;;
16800;SDS011;8518;53.236;10.384;2022-11-15T07:57:49;11.57;;;10.03;;
16800;SDS011;8518;53.236;10.384;2022-11-15T08:00:15;12.37;;;9.97;;
16800;SDS011;8518;53.236;10.384;2022-11-15T08:02:41;11.47;;;9.77;;
16800;SDS011;8518;53.236;10.384;2022-11-15T08:05:07;10.80;;;9.40;;
16800;SDS011;8518;53.236;10.384;2022-11-15T08:07:33;12.23;;;10.10;;
16800;SDS011;8518;53.236;10.384;2022-11-15T08:09:58;11.87;;;10.07;;
16800;SDS011;8518;53.236;10.384;2022-11-15T08:12:26;11.37;;;9.83;;
16800;SDS011;8518;53.236;10.384;2022-11-15T08:14:53;11.17;;;9.67;;
16800;SDS011;8518;53.236;10.384;2022-11-15T08:17:20;11.43;;;9.13;;
16800;SDS011;8518;53.236;10.384;2022-11-15T08:19:47;11.73;;;9.17;;
16800;SDS011;8518;53.236;10.384;2022-11-15T08:22:13;9.70;;;8.70;;
16800;SDS011;8518;53.236;10.384;2022-11-15T08:24:38;9.80;;;8.50;;
16800;SDS011;8518;53.236;10.384;2022-11-15T08:27:04;11.07;;;9.00;;
16800;SDS011;8518;53.236;10.384;2022-11-15T08:29:40;10.67;;;9.27;;
16800;SDS011;8518;53.236;10.384;2022-11-15T08:32:06;10.00;;;8.67;;
16800;SDS011;8518;53.236;10.384;2022-11-15T08:34:32;10.77;;;9.13;;
16800;SDS011;8518;53.236;10.384;2022-11-15T08:36:58;10.80;;;8.93;;
16800;SDS011;8518;53.236;10.384;2022-11-15T08:39:23;9.53;;;8.50;;
16800;SDS011;8518;53.236;10.384;2022-11-15T08:41:49;9.63;;;8.60;;
16800;SDS011;8518;53.236;10.384;2022-11-15T08:44:15;10.50;;;9.00;;
16800;SDS011;8518;53.236;10.384;2022-11-15T08:46:40;10.20;;;9.20;;
16800;SDS011;8518;53.236;10.384;2022-11-15T08:49:06;10.53;;;9.27;;
16800;SDS011;8518;53.236;10.384;2022-11-15T08:51:32;10.33;;;9.23;;
16800;SDS011;8518;53.236;10.384;2022-11-15T08:53:57;11.00;;;8.80;;
16800;SDS011;8518;53.236;10.384;2022-11-15T08:56:23;11.13;;;9.17;;
16800;SDS011;8518;53.236;10.384;2022-11-15T08:58:49;10.23;;;8.73;;
16800;SDS011;8518;53.236;10.384;2022-11-15T09:01:18;13.67;;;9.00;;
16800;SDS011;8518;53.236;10.384;2022-11-15T09:03:45;12.07;;;9.07;;
16800;SDS011;8518;53.236;10.384;2022-11-15T09:06:10;11.03;;;9.23;;
16800;SDS011;8518;53.236;10.384;2022-11-15T09:08:37;11.43;;;9.03;;
16800;SDS011;8518;53.236;10.384;2022-11-15T09:11:03;10.67;;;9.57;;
16800;SDS011;8518;53.236;10.384;2022-11-15T09:13:34;11.53;;;9.00;;
16800;SDS011;8518;53.236;10.384;2022-11-15T09:16:02;11.80;;;9.13;;
16800;SDS011;8518;53.236;10.384;2022-11-15T09:18:28;12.10;;;9.30;;
16800;SDS011;8518;53.236;10.384;2022-11-15T09:20:55;12.50;;;9.37;;
16800;SDS011;8518;53.236;10.384;2022-11-15T09:23:22;11.50;;;9.10;;
16800;SDS011;8518;53.236;10.384;2022-11-15T09:25:47;11.17;;;9.10;;
16800;SDS011;8518;53.236;10.384;2022-11-15T09:28:13;10.00;;;8.97;;
16800;SDS011;8518;53.236;10.384;2022-11-15T09:30:39;10.43;;;8.83;;
16800;SDS011;8518;53.236;10.384;2022-11-15T09:33:08;10.63;;;8.83;;
16800;SDS011;8518;53.236;10.384;2022-11-15T09:35:34;11.43;;;8.87;;
16800;SDS011;8518;53.236;10.384;2022-11-15T09:38:00;9.47;;;7.77;;
16800;SDS011;8518;53.236;10.384;2022-11-15T09:40:26;10.47;;;8.23;;
16800;SDS011;8518;53.236;10.384;2022-11-15T09:51:14;10.73;;;8.27;;
16800;SDS011;8518;53.236;10.384;2022-11-15T09:53:51;8.47;;;7.63;;
16800;SDS011;8518;53.236;10.384;2022-11-15T09:56:37;9.20;;;7.80;;
16800;SDS011;8518;53.236;10.384;2022-11-15T10:01:45;9.07;;;7.57;;
16800;SDS011;8518;53.236;10.384;2022-11-15T10:04:29;8.80;;;7.47;;
16800;SDS011;8518;53.236;10.384;2022-11-15T10:07:04;9.47;;;7.33;;
16800;SDS011;8518;53.236;10.384;2022-11-15T10:12:17;9.00;;;7.33;;
16800;SDS011;8518;53.236;10.384;2022-11-15T10:14:44;9.33;;;7.13;;
16800;SDS011;8518;53.236;10.384;2022-11-15T10:20:02;10.33;;;7.50;;
16800;SDS011;8518;53.236;10.384;2022-11-15T10:27:35;9.67;;;7.60;;
16800;SDS011;8518;53.236;10.384;2022-11-15T10:30:02;9.87;;;7.80;;
16800;SDS011;8518;53.236;10.384;2022-11-15T10:32:35;8.67;;;7.10;;
16800;SDS011;8518;53.236;10.384;2022-11-15T10:35:09;11.27;;;8.40;;
16800;SDS011;8518;53.236;10.384;2022-11-15T10:38:04;10.80;;;7.60;;
16800;SDS011;8518;53.236;10.384;2022-11-15T10:40:34;10.43;;;8.40;;
16800;SDS011;8518;53.236;10.384;2022-11-15T10:43:22;9.47;;;7.27;;
16800;SDS011;8518;53.236;10.384;2022-11-15T10:45:47;9.57;;;7.33;;
16800;SDS011;8518;53.236;10.384;2022-11-15T10:50:43;9.63;;;6.83;;
16800;SDS011;8518;53.236;10.384;2022-11-15T10:53:32;9.80;;;6.80;;
16800;SDS011;8518;53.236;10.384;2022-11-15T10:56:07;8.47;;;6.77;;
16800;SDS011;8518;53.236;10.384;2022-11-15T11:01:14;8.57;;;6.00;;
16800;SDS011;8518;53.236;10.384;2022-11-15T11:03:58;7.87;;;5.93;;
16800;SDS011;8518;53.236;10.384;2022-11-15T11:06:25;7.33;;;5.97;;
16800;SDS011;8518;53.236;10.384;2022-11-15T11:08:59;7.33;;;6.03;;
16800;SDS011;8518;53.236;10.384;2022-11-15T11:11:44;7.57;;;6.10;;
16800;SDS011;8518;53.236;10.384;2022-11-15T11:14:26;9.70;;;6.27;;
16800;SDS011;8518;53.236;10.384;2022-11-15T11:36:39;7.93;;;6.00;;
16800;SDS011;8518;53.236;10.384;2022-11-15T11:47:59;7.93;;;5.30;;
16800;SDS011;8518;53.236;10.384;2022-11-15T11:50:30;5.60;;;5.10;;
16800;SDS011;8518;53.236;10.384;2022-11-15T11:53:14;7.70;;;5.30;;
16800;SDS011;8518;53.236;10.384;2022-11-15T11:55:57;6.57;;;5.57;;
16800;SDS011;8518;53.236;10.384;2022-11-15T11:58:35;6.40;;;5.40;;
16800;SDS011;8518;53.236;10.384;2022-11-15T12:04:19;5.53;;;5.03;;
16800;SDS011;8518;53.236;10.384;2022-11-15T12:06:36;7.13;;;4.87;;
16800;SDS011;8518;53.236;10.384;2022-11-15T12:12:12;5.73;;;4.97;;
16800;SDS011;8518;53.236;10.384;2022-11-15T12:17:28;5.60;;;4.57;;
16800;SDS011;8518;53.236;10.384;2022-11-15T12:19:58;5.70;;;4.87;;
16800;SDS011;8518;53.236;10.384;2022-11-15T12:25:07;6.03;;;4.30;;
16800;SDS011;8518;53.236;10.384;2022-11-15T12:27:42;5.13;;;4.57;;
16800;SDS011;8518;53.236;10.384;2022-11-15T12:30:15;8.10;;;4.90;;
16800;SDS011;8518;53.236;10.384;2022-11-15T12:32:54;6.63;;;4.53;;
16800;SDS011;8518;53.236;10.384;2022-11-15T12:35:34;5.60;;;4.80;;
16800;SDS011;8518;53.236;10.384;2022-11-15T12:38:00;6.13;;;4.77;;
16800;SDS011;8518;53.236;10.384;2022-11-15T12:40:33;7.03;;;4.80;;
16800;SDS011;8518;53.236;10.384;2022-11-15T12:43:02;7.73;;;5.10;;
16800;SDS011;8518;53.236;10.384;2022-11-15T12:45:44;5.30;;;4.43;;
16800;SDS011;8518;53.236;10.384;2022-11-15T12:58:42;6.03;;;5.10;;
16800;SDS011;8518;53.236;10.384;2022-11-15T13:06:58;6.53;;;5.23;;
16800;SDS011;8518;53.236;10.384;2022-11-15T13:11:57;5.30;;;4.60;;
16800;SDS011;8518;53.236;10.384;2022-11-15T13:14:42;8.70;;;5.13;;
16800;SDS011;8518;53.236;10.384;2022-11-15T13:19:52;6.60;;;4.90;;
16800;SDS011;8518;53.236;10.384;2022-11-15T13:22:23;5.57;;;4.63;;
16800;SDS011;8518;53.236;10.384;2022-11-15T13:25:15;6.73;;;5.40;;
16800;SDS011;8518;53.236;10.384;2022-11-15T13:27:45;6.23;;;4.87;;
16800;SDS011;8518;53.236;10.384;2022-11-15T13:30:16;6.07;;;5.20;;
16800;SDS011;8518;53.236;10.384;2022-11-15T13:32:45;6.10;;;4.90;;
16800;SDS011;8518;53.236;10.384;2022-11-15T13:37:49;7.13;;;5.83;;
16800;SDS011;8518;53.236;10.384;2022-11-15T13:42:48;5.83;;;5.23;;
16800;SDS011;8518;53.236;10.384;2022-11-15T13:45:15;8.17;;;5.80;;
16800;SDS011;8518;53.236;10.384;2022-11-15T13:47:42;6.73;;;5.37;;
16800;SDS011;8518;53.236;10.384;2022-11-15T13:50:14;7.93;;;5.50;;
16800;SDS011;8518;53.236;10.384;2022-11-15T13:52:40;7.17;;;5.77;;
16800;SDS011;8518;53.236;10.384;2022-11-15T13:55:12;8.37;;;5.83;;
16800;SDS011;8518;53.236;10.384;2022-11-15T13:57:42;6.60;;;5.50;;
16800;SDS011;8518;53.236;10.384;2022-11-15T14:08:36;6.73;;;5.30;;
16800;SDS011;8518;53.236;10.384;2022-11-15T14:13:32;7.13;;;5.40;;
16800;SDS011;8518;53.236;10.384;2022-11-15T14:18:52;6.80;;;5.43;;
16800;SDS011;8518;53.236;10.384;2022-11-15T14:21:18;5.10;;;4.60;;
16800;SDS011;8518;53.236;10.384;2022-11-15T14:23:45;6.33;;;4.63;;
16800;SDS011;8518;53.236;10.384;2022-11-15T14:26:30;6.90;;;5.13;;
16800;SDS011;8518;53.236;10.384;2022-11-15T14:29:21;6.07;;;5.30;;
16800;SDS011;8518;53.236;10.384;2022-11-15T14:31:54;7.67;;;5.47;;
16800;SDS011;8518;53.236;10.384;2022-11-15T14:35:00;5.40;;;4.60;;
16800;SDS011;8518;53.236;10.384;2022-11-15T14:37:28;5.60;;;4.37;;
16800;SDS011;8518;53.236;10.384;2022-11-15T14:39:59;6.07;;;4.47;;
16800;SDS011;8518;53.236;10.384;2022-11-15T14:42:26;5.63;;;4.47;;
16800;SDS011;8518;53.236;10.384;2022-11-15T14:44:52;6.27;;;4.30;;
16800;SDS011;8518;53.236;10.384;2022-11-15T14:47:18;6.87;;;4.30;;
16800;SDS011;8518;53.236;10.384;2022-11-15T14:49:44;4.97;;;4.43;;
16800;SDS011;8518;53.236;10.384;2022-11-15T14:52:26;8.47;;;4.47;;
16800;SDS011;8518;53.236;10.384;2022-11-15T14:54:53;5.97;;;4.43;;
16800;SDS011;8518;53.236;10.384;2022-11-15T14:57:19;5.83;;;4.60;;
16800;SDS011;8518;53.236;10.384;2022-11-15T14:59:45;5.03;;;4.50;;
16800;SDS011;8518;53.236;10.384;2022-11-15T15:04:46;10.80;;;5.70;;
16800;SDS011;8518;53.236;10.384;2022-11-15T15:07:12;5.10;;;4.47;;
16800;SDS011;8518;53.236;10.384;2022-11-15T15:09:38;4.93;;;4.43;;
16800;SDS011;8518;53.236;10.384;2022-11-15T15:12:05;6.97;;;4.73;;
16800;SDS011;8518;53.236;10.384;2022-11-15T15:14:44;5.60;;;4.73;;
16800;SDS011;8518;53.236;10.384;2022-11-15T15:17:11;7.00;;;5.40;;
16800;SDS011;8518;53.236;10.384;2022-11-15T15:19:37;7.80;;;5.30;;
16800;SDS011;8518;53.236;10.384;2022-11-15T15:22:03;6.80;;;5.50;;
16800;SDS011;8518;53.236;10.384;2022-11-15T15:24:29;6.63;;;5.40;;
16800;SDS011;8518;53.236;10.384;2022-11-15T15:26:55;6.17;;;4.80;;
16800;SDS011;8518;53.236;10.384;2022-11-15T15:29:21;6.67;;;5.40;;
16800;SDS011;8518;53.236;10.384;2022-11-15T15:31:46;7.63;;;5.73;;
16800;SDS011;8518;53.236;10.384;2022-11-15T15:34:12;8.10;;;6.37;;
16800;SDS011;8518;53.236;10.384;2022-11-15T15:36:37;7.67;;;6.13;;
16800;SDS011;8518;53.236;10.384;2022-11-15T15:39:03;7.67;;;6.07;;
16800;SDS011;8518;53.236;10.384;2022-11-15T15:41:29;8.27;;;6.23;;
16800;SDS011;8518;53.236;10.384;2022-11-15T15:43:54;8.17;;;6.27;;
16800;SDS011;8518;53.236;10.384;2022-11-15T15:46:20;7.40;;;6.23;;
16800;SDS011;8518;53.236;10.384;2022-11-15T15:48:46;10.43;;;7.47;;
16800;SDS011;8518;53.236;10.384;2022-11-15T15:51:11;8.27;;;7.47;;
16800;SDS011;8518;53.236;10.384;2022-11-15T15:53:37;9.83;;;6.73;;
16800;SDS011;8518;53.236;10.384;2022-11-15T15:56:03;8.40;;;7.60;;
16800;SDS011;8518;53.236;10.384;2022-11-15T15:58:29;7.90;;;6.40;;
16800;SDS011;8518;53.236;10.384;2022-11-15T16:00:56;9.40;;;6.80;;
16800;SDS011;8518;53.236;10.384;2022-11-15T16:03:22;9.17;;;6.67;;
16800;SDS011;8518;53.236;10.384;2022-11-15T16:05:49;7.70;;;6.43;;
16800;SDS011;8518;53.236;10.384;2022-11-15T16:08:18;10.13;;;9.03;;
16800;SDS011;8518;53.236;10.384;2022-11-15T16:10:45;31.17;;;26.00;;
16800;SDS011;8518;53.236;10.384;2022-11-15T16:13:11;18.43;;;14.93;;
16800;SDS011;8518;53.236;10.384;2022-11-15T16:15:37;12.67;;;10.27;;
16800;SDS011;8518;53.236;10.384;2022-11-15T16:18:03;12.37;;;10.00;;
16800;SDS011;8518;53.236;10.384;2022-11-15T16:20:33;20.70;;;16.70;;
16800;SDS011;8518;53.236;10.384;2022-11-15T16:23:00;14.07;;;9.73;;
16800;SDS011;8518;53.236;10.384;2022-11-15T16:25:26;11.27;;;7.60;;
16800;SDS011;8518;53.236;10.384;2022-11-15T16:27:52;11.27;;;7.87;;
16800;SDS011;8518;53.236;10.384;2022-11-15T16:30:19;9.00;;;6.50;;
16800;SDS011;8518;53.236;10.384;2022-11-15T16:32:46;7.40;;;6.50;;
16800;SDS011;8518;53.236;10.384;2022-11-15T16:35:12;8.70;;;7.20;;
16800;SDS011;8518;53.236;10.384;2022-11-15T16:37:39;25.93;;;21.10;;
16800;SDS011;8518;53.236;10.384;2022-11-15T16:42:52;13.90;;;11.33;;
16800;SDS011;8518;53.236;10.384;2022-11-15T16:45:17;13.90;;;11.10;;
16800;SDS011;8518;53.236;10.384;2022-11-15T16:47:43;10.60;;;9.17;;
16800;SDS011;8518;53.236;10.384;2022-11-15T16:50:19;8.57;;;7.33;;
16800;SDS011;8518;53.236;10.384;2022-11-15T16:52:51;8.33;;;7.13;;
16800;SDS011;8518;53.236;10.384;2022-11-15T16:55:19;10.13;;;7.33;;
16800;SDS011;8518;53.236;10.384;2022-11-15T16:57:45;10.87;;;7.13;;
16800;SDS011;8518;53.236;10.384;2022-11-15T17:00:11;11.57;;;8.13;;